createdAt,value
2024-02-05T00:00:10.758Z,10.75
2024-02-05T00:01:10.856Z,10.75
2024-02-05T00:02:10.757Z,10.74
2024-02-05T00:03:10.779Z,10.74
2024-02-05T00:04:10.776Z,10.74
2024-02-05T00:05:10.725Z,10.74
2024-02-05T00:06:10.706Z,10.74
2024-02-05T00:07:10.865Z,10.72
2024-02-05T00:08:10.819Z,10.72
2024-02-05T00:09:10.664Z,10.69
2024-02-05T00:10:10.789Z,10.69
2024-02-05T00:11:10.666Z,10.69
2024-02-05T00:12:10.622Z,10.69
2024-02-05T00:13:10.705Z,10.71
2024-02-05T00:14:10.664Z,10.69
2024-02-05T00:15:10.614Z,10.71
2024-02-05T00:16:10.723Z,10.69
2024-02-05T00:17:10.588Z,10.71
2024-02-05T00:18:10.993Z,10.68
2024-02-05T00:19:10.646Z,10.68
2024-02-05T00:20:10.734Z,10.67
2024-02-05T00:21:10.565Z,10.67
2024-02-05T00:22:10.558Z,10.68
2024-02-05T00:23:10.531Z,10.67
2024-02-05T00:24:10.535Z,10.68
2024-02-05T00:25:10.604Z,10.68
2024-02-05T00:26:10.540Z,10.67
2024-02-05T00:27:10.501Z,10.67
2024-02-05T00:28:10.533Z,10.67
2024-02-05T00:29:10.469Z,10.67
2024-02-05T00:30:10.471Z,10.67
2024-02-05T00:31:10.437Z,10.67
2024-02-05T00:32:10.463Z,10.68
2024-02-05T00:33:10.431Z,10.69
2024-02-05T00:34:11.484Z,10.64
2024-02-05T00:35:10.407Z,10.67
2024-02-05T00:36:10.388Z,10.67
2024-02-05T00:37:10.420Z,10.67
2024-02-05T00:38:10.394Z,10.64
2024-02-05T00:39:10.393Z,10.64
2024-02-05T00:40:10.393Z,10.64
2024-02-05T00:41:10.340Z,10.63
2024-02-05T00:42:10.316Z,10.63
2024-02-05T00:43:10.396Z,10.64
2024-02-05T00:44:10.333Z,10.61
2024-02-05T00:45:10.303Z,10.63
2024-02-05T00:46:10.324Z,10.61
2024-02-05T00:47:10.275Z,10.64
2024-02-05T00:48:10.288Z,10.61
2024-02-05T00:49:10.308Z,10.61
2024-02-05T00:50:10.379Z,10.61
2024-02-05T00:51:10.227Z,10.60
2024-02-05T00:52:10.293Z,10.61
2024-02-05T00:53:10.229Z,10.60
2024-02-05T00:54:10.193Z,10.60
2024-02-05T00:55:10.269Z,10.59
2024-02-05T00:56:10.186Z,10.59
2024-02-05T00:57:10.176Z,10.60
2024-02-05T00:58:10.187Z,10.59
2024-02-05T00:59:10.180Z,10.57
2024-02-05T01:00:10.164Z,10.60
2024-02-05T01:01:10.191Z,10.59
2024-02-05T01:02:10.196Z,10.57
2024-02-05T01:03:10.123Z,10.56
2024-02-05T01:04:10.258Z,10.57
2024-02-05T01:05:10.335Z,10.56
2024-02-05T01:06:10.281Z,10.57
2024-02-05T01:07:10.156Z,10.57
2024-02-05T01:08:10.086Z,10.57
2024-02-05T01:09:10.069Z,10.57
2024-02-05T01:10:10.113Z,10.56
2024-02-05T01:11:10.026Z,10.56
2024-02-05T01:12:10.076Z,10.56
2024-02-05T01:13:10.105Z,10.57
2024-02-05T01:14:10.000Z,10.56
2024-02-05T01:15:10.035Z,10.53
2024-02-05T01:16:10.025Z,10.56
2024-02-05T01:17:09.983Z,10.54
2024-02-05T01:18:10.058Z,10.54
2024-02-05T01:19:10.092Z,10.56
2024-02-05T01:20:09.966Z,10.53
2024-02-05T01:21:09.937Z,10.53
2024-02-05T01:22:10.009Z,10.53
2024-02-05T01:23:09.944Z,10.51
2024-02-05T01:24:09.907Z,10.53
2024-02-05T01:25:10.012Z,10.53
2024-02-05T01:26:09.862Z,10.53
2024-02-05T01:27:09.894Z,10.51
2024-02-05T01:28:09.921Z,10.49
2024-02-05T01:29:09.885Z,10.51
2024-02-05T01:30:09.857Z,10.51
2024-02-05T01:31:09.858Z,10.48
2024-02-05T01:32:09.842Z,10.49
2024-02-05T01:33:09.889Z,10.48
2024-02-05T01:34:09.842Z,10.46
2024-02-05T01:35:09.851Z,10.48
2024-02-05T01:36:09.818Z,10.48
2024-02-05T01:37:09.800Z,10.48
2024-02-05T01:38:09.747Z,10.48
2024-02-05T01:39:09.761Z,10.48
2024-02-05T01:40:09.770Z,10.49
2024-02-05T01:41:09.915Z,10.48
2024-02-05T01:42:09.710Z,10.49
2024-02-05T01:43:09.761Z,10.46
2024-02-05T01:44:09.702Z,10.48
2024-02-05T01:45:09.704Z,10.46
2024-02-05T01:46:09.717Z,10.49
2024-02-05T01:47:09.752Z,10.46
2024-02-05T01:48:09.767Z,10.48
2024-02-05T01:49:09.747Z,10.49
2024-02-05T01:50:09.614Z,10.49
2024-02-05T01:51:09.683Z,10.49
2024-02-05T01:52:09.711Z,10.51
2024-02-05T01:53:09.739Z,10.48
2024-02-05T01:54:09.584Z,10.49
2024-02-05T01:55:09.682Z,10.48
2024-02-05T01:56:09.580Z,10.49
2024-02-05T01:57:09.583Z,10.51
2024-02-05T01:58:09.572Z,10.51
2024-02-05T01:59:09.595Z,10.51
2024-02-05T02:00:09.544Z,10.51
2024-02-05T02:01:09.586Z,10.49
2024-02-05T02:02:09.517Z,10.51
2024-02-05T02:03:09.486Z,10.51
2024-02-05T02:04:09.601Z,10.49
2024-02-05T02:05:09.602Z,10.51
2024-02-05T02:06:09.513Z,10.49
2024-02-05T02:07:09.464Z,10.49
2024-02-05T02:08:09.490Z,10.49
2024-02-05T02:09:09.505Z,10.49
2024-02-05T02:10:09.577Z,10.49
2024-02-05T02:11:09.435Z,10.51
2024-02-05T02:12:09.415Z,10.49
2024-02-05T02:13:09.451Z,10.49
2024-02-05T02:14:09.402Z,10.49
2024-02-05T02:15:09.404Z,10.49
2024-02-05T02:16:09.410Z,10.49
2024-02-05T02:17:09.355Z,10.53
2024-02-05T02:18:09.379Z,10.51
2024-02-05T02:19:09.412Z,10.53
2024-02-05T02:20:09.451Z,10.53
2024-02-05T02:21:09.329Z,10.54
2024-02-05T02:22:09.454Z,10.53
2024-02-05T02:23:09.306Z,10.51
2024-02-05T02:24:09.272Z,10.53
2024-02-05T02:25:09.325Z,10.53
2024-02-05T02:26:09.293Z,10.51
2024-02-05T02:27:09.262Z,10.49
2024-02-05T02:28:09.263Z,10.51
2024-02-05T02:29:09.222Z,10.51
2024-02-05T02:30:09.217Z,10.51
2024-02-05T02:31:09.242Z,10.51
2024-02-05T02:32:09.223Z,10.49
2024-02-05T02:33:09.286Z,10.49
2024-02-05T02:34:09.260Z,10.49
2024-02-05T02:35:09.175Z,10.48
2024-02-05T02:36:09.171Z,10.49
2024-02-05T02:37:09.187Z,10.48
2024-02-05T02:38:09.132Z,10.46
2024-02-05T02:39:09.140Z,10.46
2024-02-05T02:40:09.187Z,10.48
2024-02-05T02:41:09.125Z,10.48
2024-02-05T02:42:09.139Z,10.48
2024-02-05T02:43:09.150Z,10.51
2024-02-05T02:44:09.104Z,10.49
2024-02-05T02:45:09.135Z,10.48
2024-02-05T02:46:09.065Z,10.48
2024-02-05T02:47:09.070Z,10.48
2024-02-05T02:48:09.172Z,10.46
2024-02-05T02:49:09.087Z,10.49
2024-02-05T02:50:09.128Z,10.46
2024-02-05T02:51:09.039Z,10.46
2024-02-05T02:52:09.151Z,10.46
2024-02-05T02:53:08.984Z,10.46
2024-02-05T02:54:09.013Z,10.44
2024-02-05T02:55:09.006Z,10.42
2024-02-05T02:56:08.986Z,10.42
2024-02-05T02:57:08.943Z,10.41
2024-02-05T02:58:09.036Z,10.42
2024-02-05T02:59:08.935Z,10.44
2024-02-05T03:00:08.906Z,10.41
2024-02-05T03:01:09.090Z,10.42
2024-02-05T03:02:08.990Z,10.42
2024-02-05T03:03:08.962Z,10.42
2024-02-05T03:04:08.967Z,10.44
2024-02-05T03:05:08.867Z,10.42
2024-02-05T03:06:08.922Z,10.41
2024-02-05T03:07:08.919Z,10.42
2024-02-05T03:08:08.823Z,10.42
2024-02-05T03:09:08.848Z,10.42
2024-02-05T03:10:08.861Z,10.42
2024-02-05T03:11:08.821Z,10.42
2024-02-05T03:12:08.833Z,10.42
2024-02-05T03:13:08.809Z,10.42
2024-02-05T03:14:08.782Z,10.42
2024-02-05T03:15:08.767Z,10.44
2024-02-05T03:16:08.827Z,10.42
2024-02-05T03:17:08.801Z,10.41
2024-02-05T03:18:08.757Z,10.41
2024-02-05T03:19:08.774Z,10.41
2024-02-05T03:20:08.804Z,10.41
2024-02-05T03:21:08.709Z,10.42
2024-02-05T03:22:08.743Z,10.42
2024-02-05T03:23:10.620Z,10.42
2024-02-05T03:24:08.710Z,10.41
2024-02-05T03:25:08.686Z,10.42
2024-02-05T03:26:08.644Z,10.40
2024-02-05T03:27:08.648Z,10.40
2024-02-05T03:28:09.446Z,10.40
2024-02-05T03:29:08.649Z,10.40
2024-02-05T03:30:08.649Z,10.40
2024-02-05T03:31:08.677Z,10.40
2024-02-05T03:32:08.578Z,10.37
2024-02-05T03:33:08.753Z,10.37
2024-02-05T03:34:08.652Z,10.37
2024-02-05T03:35:08.830Z,10.37
2024-02-05T03:36:08.546Z,10.37
2024-02-05T03:37:08.555Z,10.34
2024-02-05T03:38:08.637Z,10.35
2024-02-05T03:39:08.523Z,10.35
2024-02-05T03:40:08.530Z,10.37
2024-02-05T03:41:08.518Z,10.35
2024-02-05T03:42:08.480Z,10.35
2024-02-05T03:43:08.508Z,10.35
2024-02-05T03:44:08.512Z,10.34
2024-02-05T03:45:08.460Z,10.34
2024-02-05T03:46:08.488Z,10.31
2024-02-05T03:47:08.524Z,10.33
2024-02-05T03:48:08.481Z,10.33
2024-02-05T03:49:08.463Z,10.33
2024-02-05T03:50:08.522Z,10.34
2024-02-05T03:51:08.407Z,10.31
2024-02-05T03:52:08.437Z,10.31
2024-02-05T03:53:08.380Z,10.30
2024-02-05T03:54:08.385Z,10.30
2024-02-05T03:55:08.399Z,10.28
2024-02-05T03:56:08.359Z,10.30
2024-02-05T03:57:08.354Z,10.28
2024-02-05T03:58:08.360Z,10.30
2024-02-05T03:59:08.312Z,10.30
2024-02-05T04:00:08.376Z,10.30
2024-02-05T04:01:08.382Z,10.28
2024-02-05T04:02:08.325Z,10.28
2024-02-05T04:03:08.313Z,10.30
2024-02-05T04:04:08.418Z,10.26
2024-02-05T04:05:08.321Z,10.28
2024-02-05T04:06:08.295Z,10.30
2024-02-05T04:07:08.284Z,10.30
2024-02-05T04:08:08.217Z,10.30
2024-02-05T04:09:08.195Z,10.30
2024-02-05T04:10:08.380Z,10.28
2024-02-05T04:11:08.184Z,10.30
2024-02-05T04:12:08.199Z,10.30
2024-02-05T04:13:08.939Z,10.26
2024-02-05T04:14:08.150Z,10.30
2024-02-05T04:15:08.156Z,10.30
2024-02-05T04:16:08.227Z,10.30
2024-02-05T04:17:08.120Z,10.31
2024-02-05T04:18:08.155Z,10.30
2024-02-05T04:19:08.306Z,10.30
2024-02-05T04:20:08.157Z,10.28
2024-02-05T04:21:08.091Z,10.28
2024-02-05T04:22:08.141Z,10.26
2024-02-05T04:23:08.136Z,10.28
2024-02-05T04:24:08.071Z,10.25
2024-02-05T04:25:08.138Z,10.26
2024-02-05T04:26:08.051Z,10.26
2024-02-05T04:27:08.034Z,10.28
2024-02-05T04:28:08.020Z,10.28
2024-02-05T04:29:07.980Z,10.28
2024-02-05T04:30:08.087Z,10.28
2024-02-05T04:31:08.018Z,10.28
2024-02-05T04:32:07.964Z,10.30
2024-02-05T04:33:09.080Z,10.26
2024-02-05T04:34:08.061Z,10.28
2024-02-05T04:35:09.014Z,10.28
2024-02-05T04:36:07.936Z,10.25
2024-02-05T04:37:08.019Z,10.25
2024-02-05T04:38:07.921Z,10.26
2024-02-05T04:39:09.871Z,10.25
2024-02-05T04:40:08.021Z,10.25
2024-02-05T04:41:07.866Z,10.26
2024-02-05T04:42:07.909Z,10.25
2024-02-05T04:43:07.891Z,10.25
2024-02-05T04:44:07.871Z,10.26
2024-02-05T04:45:07.821Z,10.25
2024-02-05T04:46:07.930Z,10.26
2024-02-05T04:47:07.840Z,10.26
2024-02-05T04:48:08.007Z,10.31
2024-02-05T04:49:07.913Z,10.30
2024-02-05T04:50:07.956Z,10.33
2024-02-05T04:51:07.801Z,10.33
2024-02-05T04:52:07.786Z,10.33
2024-02-05T04:53:07.772Z,10.33
2024-02-05T04:54:07.774Z,10.30
2024-02-05T04:55:07.793Z,10.30
2024-02-05T04:56:07.902Z,10.31
2024-02-05T04:57:07.724Z,10.28
2024-02-05T04:58:07.745Z,10.26
2024-02-05T04:59:07.728Z,10.26
2024-02-05T05:00:07.774Z,10.28
2024-02-05T05:01:11.407Z,10.28
2024-02-05T05:02:07.916Z,10.26
2024-02-05T05:03:07.742Z,10.23
2024-02-05T05:04:07.702Z,10.25
2024-02-05T05:05:07.730Z,10.25
2024-02-05T05:06:07.695Z,10.22
2024-02-05T05:07:07.760Z,10.22
2024-02-05T05:08:07.674Z,10.22
2024-02-05T05:09:07.740Z,10.22
2024-02-05T05:10:07.786Z,10.23
2024-02-05T05:11:07.603Z,10.26
2024-02-05T05:12:07.674Z,10.23
2024-02-05T05:13:07.785Z,10.22
2024-02-05T05:14:07.620Z,10.25
2024-02-05T05:15:07.530Z,10.25
2024-02-05T05:16:07.620Z,10.26
2024-02-05T05:17:07.522Z,10.25
2024-02-05T05:18:07.660Z,10.23
2024-02-05T05:19:07.669Z,10.23
2024-02-05T05:20:07.480Z,10.23
2024-02-05T05:21:07.508Z,10.23
2024-02-05T05:22:07.525Z,10.22
2024-02-05T05:23:07.477Z,10.23
2024-02-05T05:24:07.478Z,10.23
2024-02-05T05:25:07.472Z,10.23
2024-02-05T05:26:07.426Z,10.23
2024-02-05T05:27:07.456Z,10.25
2024-02-05T05:28:07.420Z,10.23
2024-02-05T05:29:07.404Z,10.25
2024-02-05T05:30:07.398Z,10.23
2024-02-05T05:31:07.430Z,10.22
2024-02-05T05:32:07.387Z,10.23
2024-02-05T05:33:07.443Z,10.22
2024-02-05T05:34:07.391Z,10.22
2024-02-05T05:35:10.652Z,10.22
2024-02-05T05:36:07.342Z,10.23
2024-02-05T05:37:07.354Z,10.23
2024-02-05T05:38:07.338Z,10.22
2024-02-05T05:39:07.424Z,10.22
2024-02-05T05:40:07.362Z,10.23
2024-02-05T05:41:07.256Z,10.22
2024-02-05T05:42:07.275Z,10.22
2024-02-05T05:43:07.363Z,10.22
2024-02-05T05:44:07.231Z,10.19
2024-02-05T05:45:07.287Z,10.19
2024-02-05T05:46:07.275Z,10.20
2024-02-05T05:47:07.248Z,10.20
2024-02-05T05:48:07.306Z,10.19
2024-02-05T05:49:07.284Z,10.20
2024-02-05T05:50:07.520Z,10.19
2024-02-05T05:51:07.173Z,10.19
2024-02-05T05:52:07.533Z,10.19
2024-02-05T05:53:07.155Z,10.19
2024-02-05T05:54:07.115Z,10.19
2024-02-05T05:55:07.153Z,10.17
2024-02-05T05:56:07.121Z,10.17
2024-02-05T05:57:07.182Z,10.17
2024-02-05T05:58:07.138Z,10.16
2024-02-05T05:59:07.115Z,10.15
2024-02-05T06:00:07.240Z,10.17
2024-02-05T06:01:07.483Z,10.17
2024-02-05T06:02:07.132Z,10.19
2024-02-05T06:03:07.165Z,10.17
2024-02-05T06:04:07.159Z,10.17
2024-02-05T06:05:10.793Z,10.17
2024-02-05T06:06:07.065Z,10.17
2024-02-05T06:07:06.994Z,10.19
2024-02-05T06:08:07.041Z,10.17
2024-02-05T06:09:06.985Z,10.16
2024-02-05T06:10:07.105Z,10.15
2024-02-05T06:11:06.997Z,10.16
2024-02-05T06:12:06.985Z,10.16
2024-02-05T06:13:07.057Z,10.16
2024-02-05T06:14:07.001Z,10.15
2024-02-05T06:15:06.924Z,10.17
2024-02-05T06:16:06.916Z,10.16
2024-02-05T06:17:06.916Z,10.15
2024-02-05T06:18:06.954Z,10.15
2024-02-05T06:19:06.965Z,10.15
2024-02-05T06:20:06.998Z,10.16
2024-02-05T06:21:06.928Z,10.13
2024-02-05T06:22:06.924Z,10.15
2024-02-05T06:23:06.855Z,10.13
2024-02-05T06:24:06.817Z,10.12
2024-02-05T06:25:06.893Z,10.12
2024-02-05T06:26:06.848Z,10.12
2024-02-05T06:27:06.811Z,10.12
2024-02-05T06:28:10.462Z,10.10
2024-02-05T06:29:06.758Z,10.10
2024-02-05T06:30:06.769Z,10.10
2024-02-05T06:31:06.811Z,10.12
2024-02-05T06:32:06.768Z,10.10
2024-02-05T06:33:06.757Z,10.10
2024-02-05T06:34:09.720Z,10.10
2024-02-05T06:35:06.828Z,10.12
2024-02-05T06:36:06.707Z,10.12
2024-02-05T06:37:06.760Z,10.12
2024-02-05T06:38:06.694Z,10.12
2024-02-05T06:39:06.699Z,10.10
2024-02-05T06:40:06.764Z,10.10
2024-02-05T06:41:06.681Z,10.10
2024-02-05T06:42:06.637Z,10.09
2024-02-05T06:43:06.637Z,10.10
2024-02-05T06:44:06.573Z,10.10
2024-02-05T06:45:06.583Z,10.10
2024-02-05T06:46:06.568Z,10.12
2024-02-05T06:47:06.524Z,10.13
2024-02-05T06:48:06.751Z,10.10
2024-02-05T06:49:06.575Z,10.09
2024-02-05T06:50:06.508Z,10.12
2024-02-05T06:51:06.485Z,10.12
2024-02-05T06:52:06.531Z,10.10
2024-02-05T06:53:06.507Z,10.07
2024-02-05T06:54:06.503Z,10.07
2024-02-05T06:55:06.513Z,10.07
2024-02-05T06:56:06.465Z,10.07
2024-02-05T06:57:06.448Z,10.10
2024-02-05T06:58:06.467Z,10.10
2024-02-05T06:59:06.425Z,10.12
2024-02-05T07:00:06.431Z,10.10
2024-02-05T07:01:06.533Z,10.10
2024-02-05T07:02:06.496Z,10.10
2024-02-05T07:03:06.395Z,10.10
2024-02-05T07:04:06.519Z,10.10
2024-02-05T07:05:06.443Z,10.09
2024-02-05T07:06:06.807Z,10.09
2024-02-05T07:07:06.638Z,10.09
2024-02-05T07:08:06.388Z,10.07
2024-02-05T07:09:06.321Z,10.09
2024-02-05T07:10:06.553Z,10.07
2024-02-05T07:11:06.347Z,10.09
2024-02-05T07:12:06.283Z,10.09
2024-02-05T07:13:06.332Z,10.10
2024-02-05T07:14:06.325Z,10.12
2024-02-05T07:15:06.322Z,10.10
2024-02-05T07:16:06.278Z,10.10
2024-02-05T07:17:06.255Z,10.09
2024-02-05T07:18:06.324Z,10.10
2024-02-05T07:19:06.282Z,10.12
2024-02-05T07:20:06.490Z,10.10
2024-02-05T07:21:06.423Z,10.10
2024-02-05T07:22:06.263Z,10.07
2024-02-05T07:23:06.226Z,10.09
2024-02-05T07:24:06.191Z,10.07
2024-02-05T07:25:06.225Z,10.10
2024-02-05T07:26:06.174Z,10.09
2024-02-05T07:27:06.195Z,10.09
2024-02-05T07:28:06.151Z,10.07
2024-02-05T07:29:06.162Z,10.07
2024-02-05T07:30:06.139Z,10.07
2024-02-05T07:31:06.131Z,10.05
2024-02-05T07:32:06.128Z,10.05
2024-02-05T07:33:06.226Z,10.04
2024-02-05T07:34:06.251Z,10.05
2024-02-05T07:35:06.170Z,10.07
2024-02-05T07:36:06.734Z,10.09
2024-02-05T07:37:06.075Z,10.09
2024-02-05T07:38:24.573Z,10.10
2024-02-05T07:39:05.983Z,10.09
2024-02-05T07:40:06.079Z,10.12
2024-02-05T07:41:06.011Z,10.10
2024-02-05T07:42:05.991Z,10.10
2024-02-05T07:43:06.017Z,10.09
2024-02-05T07:44:05.958Z,10.09
2024-02-05T07:45:05.966Z,10.09
2024-02-05T07:46:06.089Z,10.07
2024-02-05T07:47:05.954Z,10.09
2024-02-05T07:48:05.964Z,10.07
2024-02-05T07:49:06.001Z,10.05
2024-02-05T07:50:05.992Z,10.09
2024-02-05T07:51:05.880Z,10.07
2024-02-05T07:52:05.933Z,10.09
2024-02-05T07:53:05.916Z,10.07
2024-02-05T07:54:05.845Z,10.07
2024-02-05T07:55:08.504Z,10.09
2024-02-05T07:56:05.845Z,10.09
2024-02-05T07:57:05.842Z,10.07
2024-02-05T07:58:05.892Z,10.07
2024-02-05T07:59:05.835Z,10.07
2024-02-05T08:00:05.833Z,10.07
2024-02-05T08:01:05.940Z,10.07
2024-02-05T08:02:05.951Z,10.04
2024-02-05T08:03:05.788Z,10.05
2024-02-05T08:04:05.843Z,10.05
2024-02-05T08:05:05.939Z,10.04
2024-02-05T08:06:05.829Z,10.04
2024-02-05T08:07:05.960Z,10.04
2024-02-05T08:08:05.727Z,10.04
2024-02-05T08:09:05.770Z,10.04
2024-02-05T08:10:05.797Z,10.05
2024-02-05T08:11:06.230Z,10.07
2024-02-05T08:12:05.670Z,10.09
2024-02-05T08:13:05.758Z,10.09
2024-02-05T08:14:05.664Z,10.09
2024-02-05T08:15:05.679Z,10.10
2024-02-05T08:16:05.706Z,10.12
2024-02-05T08:17:08.549Z,10.13
2024-02-05T08:18:05.646Z,10.13
2024-02-05T08:19:05.656Z,10.15
2024-02-05T08:20:05.755Z,10.12
2024-02-05T08:21:05.584Z,10.13
2024-02-05T08:22:05.640Z,10.12
2024-02-05T08:23:05.577Z,10.15
2024-02-05T08:24:07.593Z,10.13
2024-02-05T08:25:05.609Z,10.13
2024-02-05T08:26:05.529Z,10.12
2024-02-05T08:27:05.537Z,10.15
2024-02-05T08:28:05.521Z,10.12
2024-02-05T08:29:05.523Z,10.12
2024-02-05T08:30:05.474Z,10.13
2024-02-05T08:31:05.512Z,10.13
2024-02-05T08:32:05.471Z,10.13
2024-02-05T08:33:05.488Z,10.13
2024-02-05T08:34:05.592Z,10.15
2024-02-05T08:35:05.536Z,10.17
2024-02-05T08:36:05.429Z,10.16
2024-02-05T08:37:05.439Z,10.19
2024-02-05T08:38:05.420Z,10.17
2024-02-05T08:39:05.393Z,10.17
2024-02-05T08:40:05.519Z,10.17
2024-02-05T08:41:05.407Z,10.17
2024-02-05T08:42:15.885Z,10.19
2024-02-05T08:43:05.376Z,10.19
2024-02-05T08:44:05.441Z,10.17
2024-02-05T08:45:05.446Z,10.19
2024-02-05T08:46:05.379Z,10.19
2024-02-05T08:47:05.325Z,10.17
2024-02-05T08:48:05.366Z,10.20
2024-02-05T08:49:05.356Z,10.19
2024-02-05T08:50:05.393Z,10.22
2024-02-05T08:51:05.277Z,10.20
2024-02-05T08:52:05.298Z,10.22
2024-02-05T08:53:05.290Z,10.22
2024-02-05T08:54:05.238Z,10.20
2024-02-05T08:55:05.333Z,10.20
2024-02-05T08:56:05.248Z,10.20
2024-02-05T08:57:05.263Z,10.20
2024-02-05T08:58:05.207Z,10.22
2024-02-05T08:59:05.203Z,10.22
2024-02-05T09:00:05.233Z,10.20
2024-02-05T09:01:05.364Z,10.22
2024-02-05T09:02:05.255Z,10.22
2024-02-05T09:03:08.883Z,10.23
2024-02-05T09:04:05.234Z,10.22
2024-02-05T09:05:05.173Z,10.23
2024-02-05T09:06:05.167Z,10.25
2024-02-05T09:07:05.170Z,10.26
2024-02-05T09:08:05.100Z,10.26
2024-02-05T09:09:05.072Z,10.26
2024-02-05T09:10:05.098Z,10.28
2024-02-05T09:11:05.108Z,10.26
2024-02-05T09:12:07.154Z,10.25
2024-02-05T09:13:05.096Z,10.26
2024-02-05T09:14:05.041Z,10.23
2024-02-05T09:15:05.043Z,10.25
2024-02-05T09:16:05.085Z,10.26
2024-02-05T09:17:05.018Z,10.26
2024-02-05T09:18:05.042Z,10.28
2024-02-05T09:19:05.054Z,10.30
2024-02-05T09:20:05.163Z,10.33
2024-02-05T09:21:04.966Z,10.34
2024-02-05T09:22:05.057Z,10.34
2024-02-05T09:23:04.976Z,10.34
2024-02-05T09:24:05.018Z,10.34
2024-02-05T09:25:04.990Z,10.33
2024-02-05T09:26:04.922Z,10.34
2024-02-05T09:27:04.952Z,10.35
2024-02-05T09:28:04.962Z,10.37
2024-02-05T09:29:04.889Z,10.38
2024-02-05T09:30:05.543Z,10.40
2024-02-05T09:31:11.648Z,10.41
2024-02-05T09:32:04.995Z,10.44
2024-02-05T09:33:04.877Z,10.46
2024-02-05T09:34:04.907Z,10.48
2024-02-05T09:35:04.869Z,10.46
2024-02-05T09:36:04.822Z,10.46
2024-02-05T09:37:04.845Z,10.48
2024-02-05T09:38:07.989Z,10.48
2024-02-05T09:39:04.818Z,10.48
2024-02-05T09:40:04.832Z,10.48
2024-02-05T09:41:04.812Z,10.48
2024-02-05T09:42:04.751Z,10.46
2024-02-05T09:43:04.768Z,10.48
2024-02-05T09:44:04.803Z,10.51
2024-02-05T09:45:04.701Z,10.53
2024-02-05T09:46:04.744Z,10.54
2024-02-05T09:47:04.743Z,10.57
2024-02-05T09:48:04.785Z,10.59
2024-02-05T09:49:05.026Z,10.61
2024-02-05T09:50:04.881Z,10.60
2024-02-05T09:51:04.654Z,10.61
2024-02-05T09:52:04.741Z,10.67
2024-02-05T09:53:04.644Z,10.67
2024-02-05T09:54:11.268Z,10.68
2024-02-05T09:55:04.706Z,10.67
2024-02-05T09:56:04.640Z,10.68
2024-02-05T09:57:04.612Z,10.69
2024-02-05T09:58:04.656Z,10.69
2024-02-05T09:59:04.579Z,10.69
2024-02-05T10:00:04.606Z,10.69
2024-02-05T10:01:04.881Z,10.72
2024-02-05T10:02:04.701Z,10.71
2024-02-05T10:03:04.547Z,10.69
2024-02-05T10:04:04.688Z,10.69
2024-02-05T10:05:04.624Z,10.72
2024-02-05T10:06:04.682Z,10.76
2024-02-05T10:07:04.531Z,10.74
2024-02-05T10:08:07.471Z,10.72
2024-02-05T10:09:04.514Z,10.71
2024-02-05T10:10:04.563Z,10.71
2024-02-05T10:11:04.598Z,10.71
2024-02-05T10:12:04.441Z,10.71
2024-02-05T10:13:04.435Z,10.74
2024-02-05T10:14:04.423Z,10.75
2024-02-05T10:15:04.442Z,10.75
2024-02-05T10:16:04.437Z,10.76
2024-02-05T10:17:05.881Z,10.75
2024-02-05T10:18:04.542Z,10.76
2024-02-05T10:19:04.425Z,10.78
2024-02-05T10:20:04.396Z,10.76
2024-02-05T10:21:04.346Z,10.78
2024-02-05T10:22:04.509Z,10.81
2024-02-05T10:23:04.387Z,10.82
2024-02-05T10:24:04.335Z,10.82
2024-02-05T10:25:04.368Z,10.86
2024-02-05T10:26:04.310Z,10.84
2024-02-05T10:27:04.393Z,10.84
2024-02-05T10:28:04.554Z,10.82
2024-02-05T10:29:04.281Z,10.82
2024-02-05T10:30:04.496Z,10.82
2024-02-05T10:31:04.365Z,10.84
2024-02-05T10:32:04.256Z,10.84
2024-02-05T10:33:04.428Z,10.82
2024-02-05T10:34:04.273Z,10.86
2024-02-05T10:35:04.370Z,10.87
2024-02-05T10:36:04.223Z,10.89
2024-02-05T10:37:04.206Z,10.86
2024-02-05T10:38:04.205Z,10.89
2024-02-05T10:39:04.167Z,10.89
2024-02-05T10:40:04.239Z,10.89
2024-02-05T10:41:04.173Z,10.89
2024-02-05T10:42:04.146Z,10.92
2024-02-05T10:43:04.148Z,10.93
2024-02-05T10:44:04.138Z,10.94
2024-02-05T10:45:04.086Z,11.00
2024-02-05T10:46:04.129Z,11.04
2024-02-05T10:47:04.108Z,11.07
2024-02-05T10:48:04.156Z,11.08
2024-02-05T10:49:04.107Z,11.08
2024-02-05T10:50:04.252Z,11.07
2024-02-05T10:51:04.055Z,11.10
2024-02-05T10:52:07.293Z,11.11
2024-02-05T10:53:04.022Z,11.12
2024-02-05T10:54:04.021Z,11.12
2024-02-05T10:55:04.085Z,11.14
2024-02-05T10:56:04.017Z,11.17
2024-02-05T10:57:04.000Z,11.14
2024-02-05T10:58:04.070Z,11.08
2024-02-05T10:59:03.989Z,11.05
2024-02-05T11:00:03.964Z,11.08
2024-02-05T11:01:04.046Z,11.14
2024-02-05T11:02:04.173Z,11.14
2024-02-05T11:03:03.973Z,11.15
2024-02-05T11:04:04.019Z,11.15
2024-02-05T11:05:04.141Z,11.17
2024-02-05T11:06:03.915Z,11.18
2024-02-05T11:07:04.059Z,11.18
2024-02-05T11:08:04.105Z,11.18
2024-02-05T11:09:03.891Z,11.18
2024-02-05T11:10:03.885Z,11.18
2024-02-05T11:11:03.902Z,11.15
2024-02-05T11:12:03.831Z,11.19
2024-02-05T11:13:03.944Z,11.22
2024-02-05T11:14:03.812Z,11.22
2024-02-05T11:15:03.801Z,11.23
2024-02-05T11:16:04.227Z,11.26
2024-02-05T11:17:03.759Z,11.32
2024-02-05T11:18:03.869Z,11.36
2024-02-05T11:19:03.955Z,11.41
2024-02-05T11:20:04.086Z,11.44
2024-02-05T11:21:03.750Z,11.44
2024-02-05T11:22:05.519Z,11.41
2024-02-05T11:23:03.702Z,11.37
2024-02-05T11:24:03.718Z,11.35
2024-02-05T11:25:03.732Z,11.33
2024-02-05T11:26:03.795Z,11.35
2024-02-05T11:27:03.718Z,11.30
2024-02-05T11:28:03.776Z,11.26
2024-02-05T11:29:03.671Z,11.29
2024-02-05T11:30:03.626Z,11.25
2024-02-05T11:31:03.670Z,11.23
2024-02-05T11:32:03.677Z,11.23
2024-02-05T11:33:03.647Z,11.22
2024-02-05T11:34:03.722Z,11.18
2024-02-05T11:35:04.006Z,11.18
2024-02-05T11:36:03.602Z,11.18
2024-02-05T11:37:03.666Z,11.19
2024-02-05T11:38:04.063Z,11.19
2024-02-05T11:39:03.578Z,11.23
2024-02-05T11:40:03.674Z,11.26
2024-02-05T11:41:03.583Z,11.35
2024-02-05T11:42:03.527Z,11.35
2024-02-05T11:43:03.562Z,11.36
2024-02-05T11:44:03.494Z,11.36
2024-02-05T11:45:03.508Z,11.35
2024-02-05T11:46:03.544Z,11.32
2024-02-05T11:47:03.478Z,11.30
2024-02-05T11:48:03.501Z,11.26
2024-02-05T11:49:03.646Z,11.27
2024-02-05T11:50:03.579Z,11.25
2024-02-05T11:51:03.455Z,11.26
2024-02-05T11:52:03.540Z,11.27
2024-02-05T11:53:03.401Z,11.29
2024-02-05T11:54:03.452Z,11.32
2024-02-05T11:55:03.425Z,11.30
2024-02-05T11:56:03.393Z,11.27
2024-02-05T11:57:03.376Z,11.29
2024-02-05T11:58:03.367Z,11.26
2024-02-05T11:59:03.400Z,11.23
2024-02-05T12:00:03.382Z,11.22
2024-02-05T12:01:03.424Z,11.22
2024-02-05T12:02:03.383Z,11.19
2024-02-05T12:03:03.346Z,11.19
2024-02-05T12:04:03.356Z,11.19
2024-02-05T12:05:03.302Z,11.22
2024-02-05T12:06:03.306Z,11.23
2024-02-05T12:07:03.333Z,11.19
2024-02-05T12:08:03.397Z,11.19
2024-02-05T12:09:03.272Z,11.19
2024-02-05T12:10:03.290Z,11.19
2024-02-05T12:11:03.236Z,11.25
2024-02-05T12:12:03.209Z,11.27
2024-02-05T12:13:03.288Z,11.25
2024-02-05T12:14:03.233Z,11.23
2024-02-05T12:15:03.190Z,11.27
2024-02-05T12:16:03.199Z,11.27
2024-02-05T12:17:03.213Z,11.32
2024-02-05T12:18:03.278Z,11.33
2024-02-05T12:19:11.861Z,11.32
2024-02-05T12:20:03.292Z,11.32
2024-02-05T12:21:03.121Z,11.35
2024-02-05T12:22:03.132Z,11.37
2024-02-05T12:23:03.127Z,11.41
2024-02-05T12:24:03.102Z,11.45
2024-02-05T12:25:03.139Z,11.47
2024-02-05T12:26:03.125Z,11.50
2024-02-05T12:27:03.105Z,11.50
2024-02-05T12:28:03.087Z,11.50
2024-02-05T12:29:03.052Z,11.54
2024-02-05T12:30:03.146Z,11.57
2024-02-05T12:31:03.041Z,11.55
2024-02-05T12:32:03.082Z,11.55
2024-02-05T12:33:03.099Z,11.62
2024-02-05T12:34:03.294Z,11.69
2024-02-05T12:35:03.232Z,11.72
2024-02-05T12:36:03.059Z,11.73
2024-02-05T12:37:03.117Z,11.70
2024-02-05T12:38:02.945Z,11.65
2024-02-05T12:39:02.946Z,11.62
2024-02-05T12:40:02.957Z,11.60
2024-02-05T12:41:02.936Z,11.60
2024-02-05T12:42:02.892Z,11.59
2024-02-05T12:43:02.958Z,11.55
2024-02-05T12:44:02.939Z,11.59
2024-02-05T12:45:11.906Z,11.60
2024-02-05T12:46:02.992Z,11.65
2024-02-05T12:47:02.856Z,11.65
2024-02-05T12:48:02.907Z,11.68
2024-02-05T12:49:02.958Z,11.72
2024-02-05T12:50:03.082Z,11.72
2024-02-05T12:51:02.839Z,11.75
2024-02-05T12:52:02.801Z,11.78